Ireland, Mississippi
Current Conditions -  °F | °C
As of 6:35 AM on Monday 22 Dec 2014 (Local Time) from KHEZ Reporting Station
Overcast Overcast  
Wind Chill: 55°   Ceiling: 300
Heat Index: 55°   Visibility: 2.5mi
Dew Point: 52°   Wind: 10mph
Humidity: 88%   Direction: 150°SSE
Pressure: 29.83"   Gusts: NA
Location:  31.1784°N, 91.3525°W
Report Text: KHEZ 221235Z AUTO 15009KT 2 1/2SM OVC003 13/11 A2983 RMK AO1
Loading
Personal Weather Stations






























Interactive Weather Map New forecast layout! Learn more

10-Day Weather Forecast

Advertisements
Track Severe Weather on mobile